sensor_id;sensor_type;location;lat;lon;timestamp;P1;durP1;ratioP1;P2;durP2;ratioP2
35380;SDS011;21486;51.916;8.378;2023-08-20T00:33:01;31.83;;;18.83;;
35380;SDS011;21486;51.916;8.378;2023-08-20T00:35:27;30.40;;;18.30;;
35380;SDS011;21486;51.916;8.378;2023-08-20T00:37:53;27.40;;;16.37;;
35380;SDS011;21486;51.916;8.378;2023-08-20T00:40:18;27.05;;;16.13;;
35380;SDS011;21486;51.916;8.378;2023-08-20T00:42:44;27.57;;;16.60;;
35380;SDS011;21486;51.916;8.378;2023-08-20T00:45:09;27.33;;;15.67;;
35380;SDS011;21486;51.916;8.378;2023-08-20T00:47:35;23.60;;;15.60;;
35380;SDS011;21486;51.916;8.378;2023-08-20T00:50:01;25.80;;;15.30;;
35380;SDS011;21486;51.916;8.378;2023-08-20T00:52:30;26.05;;;14.40;;
35380;SDS011;21486;51.916;8.378;2023-08-20T00:54:56;24.73;;;15.30;;
35380;SDS011;21486;51.916;8.378;2023-08-20T00:57:22;26.55;;;14.13;;
35380;SDS011;21486;51.916;8.378;2023-08-20T00:59:48;24.00;;;14.10;;
35380;SDS011;21486;51.916;8.378;2023-08-20T01:02:18;21.42;;;13.85;;
35380;SDS011;21486;51.916;8.378;2023-08-20T01:04:45;23.35;;;15.05;;
35380;SDS011;21486;51.916;8.378;2023-08-20T01:09:57;25.13;;;14.82;;
35380;SDS011;21486;51.916;8.378;2023-08-20T01:12:34;23.67;;;14.60;;
35380;SDS011;21486;51.916;8.378;2023-08-20T01:15:00;27.07;;;15.83;;
35380;SDS011;21486;51.916;8.378;2023-08-20T01:17:26;23.77;;;13.87;;
35380;SDS011;21486;51.916;8.378;2023-08-20T01:19:51;22.10;;;13.55;;
35380;SDS011;21486;51.916;8.378;2023-08-20T01:30:57;21.17;;;9.73;;
35380;SDS011;21486;51.916;8.378;2023-08-20T01:33:24;16.17;;;9.45;;
35380;SDS011;21486;51.916;8.378;2023-08-20T01:35:54;20.10;;;10.02;;
35380;SDS011;21486;51.916;8.378;2023-08-20T01:38:20;15.70;;;9.35;;
35380;SDS011;21486;51.916;8.378;2023-08-20T01:40:46;16.30;;;8.70;;
35380;SDS011;21486;51.916;8.378;2023-08-20T01:43:12;15.30;;;8.40;;
35380;SDS011;21486;51.916;8.378;2023-08-20T01:45:37;18.00;;;8.13;;
35380;SDS011;21486;51.916;8.378;2023-08-20T01:48:03;12.80;;;8.02;;
35380;SDS011;21486;51.916;8.378;2023-08-20T01:50:29;17.40;;;8.57;;
35380;SDS011;21486;51.916;8.378;2023-08-20T01:52:55;18.70;;;9.40;;
35380;SDS011;21486;51.916;8.378;2023-08-20T01:55:21;18.67;;;8.37;;
35380;SDS011;21486;51.916;8.378;2023-08-20T01:57:46;15.37;;;8.03;;
35380;SDS011;21486;51.916;8.378;2023-08-20T02:00:12;17.30;;;7.77;;
35380;SDS011;21486;51.916;8.378;2023-08-20T02:02:38;15.40;;;8.48;;
35380;SDS011;21486;51.916;8.378;2023-08-20T02:05:03;13.75;;;8.13;;
35380;SDS011;21486;51.916;8.378;2023-08-20T02:07:29;16.47;;;8.13;;
35380;SDS011;21486;51.916;8.378;2023-08-20T02:09:55;18.25;;;7.80;;
35380;SDS011;21486;51.916;8.378;2023-08-20T02:12:20;17.47;;;7.90;;
35380;SDS011;21486;51.916;8.378;2023-08-20T02:14:46;13.02;;;6.95;;
35380;SDS011;21486;51.916;8.378;2023-08-20T02:17:11;13.68;;;6.75;;
35380;SDS011;21486;51.916;8.378;2023-08-20T02:19:37;16.77;;;7.30;;
35380;SDS011;21486;51.916;8.378;2023-08-20T02:22:03;13.73;;;6.70;;
35380;SDS011;21486;51.916;8.378;2023-08-20T02:24:29;13.23;;;6.80;;
35380;SDS011;21486;51.916;8.378;2023-08-20T02:26:55;10.30;;;6.40;;
35380;SDS011;21486;51.916;8.378;2023-08-20T02:29:21;12.55;;;7.10;;
35380;SDS011;21486;51.916;8.378;2023-08-20T02:31:46;12.77;;;7.70;;
35380;SDS011;21486;51.916;8.378;2023-08-20T02:34:12;11.03;;;7.20;;
35380;SDS011;21486;51.916;8.378;2023-08-20T02:36:37;13.77;;;7.60;;
35380;SDS011;21486;51.916;8.378;2023-08-20T02:39:03;15.07;;;8.17;;
35380;SDS011;21486;51.916;8.378;2023-08-20T02:41:32;14.95;;;7.57;;
35380;SDS011;21486;51.916;8.378;2023-08-20T02:44:03;14.18;;;7.70;;
35380;SDS011;21486;51.916;8.378;2023-08-20T02:46:29;15.67;;;7.40;;
35380;SDS011;21486;51.916;8.378;2023-08-20T02:48:55;20.80;;;8.00;;
35380;SDS011;21486;51.916;8.378;2023-08-20T02:51:20;16.27;;;8.10;;
35380;SDS011;21486;51.916;8.378;2023-08-20T02:53:46;14.70;;;7.00;;
35380;SDS011;21486;51.916;8.378;2023-08-20T02:56:11;16.08;;;7.00;;
35380;SDS011;21486;51.916;8.378;2023-08-20T02:58:37;11.40;;;6.53;;
35380;SDS011;21486;51.916;8.378;2023-08-20T03:01:03;14.70;;;7.27;;
35380;SDS011;21486;51.916;8.378;2023-08-20T03:03:28;17.00;;;7.20;;
35380;SDS011;21486;51.916;8.378;2023-08-20T03:05:54;11.60;;;6.73;;
35380;SDS011;21486;51.916;8.378;2023-08-20T03:08:19;13.65;;;7.57;;
35380;SDS011;21486;51.916;8.378;2023-08-20T03:10:45;17.90;;;7.37;;
35380;SDS011;21486;51.916;8.378;2023-08-20T03:13:10;16.83;;;7.78;;
35380;SDS011;21486;51.916;8.378;2023-08-20T03:15:36;14.67;;;7.63;;
35380;SDS011;21486;51.916;8.378;2023-08-20T03:18:01;14.83;;;7.47;;
35380;SDS011;21486;51.916;8.378;2023-08-20T03:20:28;13.02;;;7.30;;
35380;SDS011;21486;51.916;8.378;2023-08-20T03:22:56;14.98;;;7.35;;
35380;SDS011;21486;51.916;8.378;2023-08-20T03:25:21;12.77;;;6.90;;
35380;SDS011;21486;51.916;8.378;2023-08-20T03:27:47;15.27;;;7.10;;
35380;SDS011;21486;51.916;8.378;2023-08-20T03:30:12;12.07;;;7.30;;
35380;SDS011;21486;51.916;8.378;2023-08-20T03:32:38;13.05;;;7.03;;
35380;SDS011;21486;51.916;8.378;2023-08-20T03:35:04;13.50;;;7.10;;
35380;SDS011;21486;51.916;8.378;2023-08-20T03:37:30;12.38;;;7.30;;
35380;SDS011;21486;51.916;8.378;2023-08-20T03:39:55;16.05;;;8.18;;
35380;SDS011;21486;51.916;8.378;2023-08-20T03:42:21;15.83;;;8.73;;
35380;SDS011;21486;51.916;8.378;2023-08-20T03:44:46;15.95;;;8.15;;
35380;SDS011;21486;51.916;8.378;2023-08-20T03:47:12;16.63;;;8.57;;
35380;SDS011;21486;51.916;8.378;2023-08-20T03:49:37;15.05;;;8.35;;
35380;SDS011;21486;51.916;8.378;2023-08-20T03:52:03;16.77;;;8.23;;
35380;SDS011;21486;51.916;8.378;2023-08-20T03:54:31;15.97;;;8.50;;
35380;SDS011;21486;51.916;8.378;2023-08-20T03:56:57;13.90;;;7.82;;
35380;SDS011;21486;51.916;8.378;2023-08-20T03:59:23;15.83;;;8.37;;
35380;SDS011;21486;51.916;8.378;2023-08-20T04:01:48;16.65;;;8.77;;
35380;SDS011;21486;51.916;8.378;2023-08-20T04:04:14;15.93;;;8.07;;
35380;SDS011;21486;51.916;8.378;2023-08-20T04:06:39;16.92;;;8.02;;
35380;SDS011;21486;51.916;8.378;2023-08-20T04:09:05;17.63;;;8.85;;
35380;SDS011;21486;51.916;8.378;2023-08-20T04:11:31;16.50;;;8.55;;
35380;SDS011;21486;51.916;8.378;2023-08-20T04:13:57;15.17;;;9.03;;
35380;SDS011;21486;51.916;8.378;2023-08-20T04:16:23;15.17;;;8.23;;
35380;SDS011;21486;51.916;8.378;2023-08-20T04:18:48;18.33;;;9.23;;
35380;SDS011;21486;51.916;8.378;2023-08-20T04:21:14;22.13;;;10.43;;
35380;SDS011;21486;51.916;8.378;2023-08-20T04:23:40;16.67;;;9.17;;
35380;SDS011;21486;51.916;8.378;2023-08-20T04:26:06;19.80;;;9.55;;
35380;SDS011;21486;51.916;8.378;2023-08-20T04:28:32;18.43;;;8.93;;
35380;SDS011;21486;51.916;8.378;2023-08-20T04:30:57;18.42;;;9.20;;
35380;SDS011;21486;51.916;8.378;2023-08-20T04:33:25;13.80;;;8.15;;
35380;SDS011;21486;51.916;8.378;2023-08-20T04:35:50;17.70;;;8.63;;
35380;SDS011;21486;51.916;8.378;2023-08-20T04:38:16;16.00;;;8.30;;
35380;SDS011;21486;51.916;8.378;2023-08-20T04:40:42;15.30;;;8.30;;
35380;SDS011;21486;51.916;8.378;2023-08-20T04:43:11;14.03;;;8.10;;
35380;SDS011;21486;51.916;8.378;2023-08-20T04:45:37;14.37;;;7.83;;
35380;SDS011;21486;51.916;8.378;2023-08-20T04:48:02;14.75;;;8.50;;
35380;SDS011;21486;51.916;8.378;2023-08-20T04:50:28;14.13;;;8.30;;
35380;SDS011;21486;51.916;8.378;2023-08-20T04:52:53;15.57;;;8.32;;
35380;SDS011;21486;51.916;8.378;2023-08-20T04:55:19;18.15;;;8.77;;
35380;SDS011;21486;51.916;8.378;2023-08-20T04:57:45;15.07;;;9.03;;
35380;SDS011;21486;51.916;8.378;2023-08-20T05:00:11;14.47;;;8.53;;
35380;SDS011;21486;51.916;8.378;2023-08-20T05:02:36;15.48;;;8.75;;
35380;SDS011;21486;51.916;8.378;2023-08-20T05:05:02;16.10;;;8.20;;
35380;SDS011;21486;51.916;8.378;2023-08-20T05:07:28;14.03;;;7.90;;
35380;SDS011;21486;51.916;8.378;2023-08-20T05:09:54;15.10;;;7.53;;
35380;SDS011;21486;51.916;8.378;2023-08-20T05:12:19;12.80;;;6.97;;
35380;SDS011;21486;51.916;8.378;2023-08-20T05:14:45;14.50;;;8.23;;
35380;SDS011;21486;51.916;8.378;2023-08-20T05:17:10;16.58;;;7.45;;
35380;SDS011;21486;51.916;8.378;2023-08-20T05:19:36;13.60;;;7.40;;
35380;SDS011;21486;51.916;8.378;2023-08-20T05:22:01;11.38;;;7.13;;
35380;SDS011;21486;51.916;8.378;2023-08-20T05:24:27;12.77;;;6.90;;
35380;SDS011;21486;51.916;8.378;2023-08-20T05:29:39;15.60;;;7.40;;
35380;SDS011;21486;51.916;8.378;2023-08-20T05:32:05;13.00;;;6.90;;
35380;SDS011;21486;51.916;8.378;2023-08-20T05:34:31;14.50;;;7.33;;
35380;SDS011;21486;51.916;8.378;2023-08-20T05:36:57;11.97;;;6.57;;
35380;SDS011;21486;51.916;8.378;2023-08-20T05:39:22;14.80;;;6.33;;
35380;SDS011;21486;51.916;8.378;2023-08-20T05:41:48;13.53;;;6.10;;
35380;SDS011;21486;51.916;8.378;2023-08-20T05:44:14;13.18;;;6.88;;
35380;SDS011;21486;51.916;8.378;2023-08-20T05:46:39;14.00;;;7.33;;
35380;SDS011;21486;51.916;8.378;2023-08-20T05:49:05;12.33;;;7.13;;
35380;SDS011;21486;51.916;8.378;2023-08-20T05:51:31;12.43;;;6.63;;
35380;SDS011;21486;51.916;8.378;2023-08-20T05:53:57;11.15;;;5.90;;
35380;SDS011;21486;51.916;8.378;2023-08-20T05:56:22;15.07;;;6.00;;
35380;SDS011;21486;51.916;8.378;2023-08-20T05:58:48;14.23;;;6.18;;
35380;SDS011;21486;51.916;8.378;2023-08-20T06:01:13;15.20;;;5.50;;
35380;SDS011;21486;51.916;8.378;2023-08-20T06:03:39;11.43;;;4.65;;
35380;SDS011;21486;51.916;8.378;2023-08-20T06:06:04;13.80;;;4.37;;
35380;SDS011;21486;51.916;8.378;2023-08-20T06:08:30;12.45;;;4.32;;
35380;SDS011;21486;51.916;8.378;2023-08-20T06:10:55;11.37;;;4.30;;
35380;SDS011;21486;51.916;8.378;2023-08-20T06:13:21;10.23;;;4.13;;
35380;SDS011;21486;51.916;8.378;2023-08-20T06:15:46;10.47;;;3.67;;
35380;SDS011;21486;51.916;8.378;2023-08-20T06:18:12;11.32;;;4.32;;
35380;SDS011;21486;51.916;8.378;2023-08-20T06:20:37;12.80;;;4.60;;
35380;SDS011;21486;51.916;8.378;2023-08-20T06:23:03;12.02;;;5.20;;
35380;SDS011;21486;51.916;8.378;2023-08-20T06:25:29;11.93;;;5.17;;
35380;SDS011;21486;51.916;8.378;2023-08-20T06:27:55;11.93;;;5.40;;
35380;SDS011;21486;51.916;8.378;2023-08-20T06:30:20;12.07;;;4.82;;
35380;SDS011;21486;51.916;8.378;2023-08-20T06:32:46;11.33;;;5.40;;
35380;SDS011;21486;51.916;8.378;2023-08-20T06:35:11;10.00;;;5.00;;
35380;SDS011;21486;51.916;8.378;2023-08-20T06:37:38;12.57;;;5.50;;
35380;SDS011;21486;51.916;8.378;2023-08-20T06:40:05;12.17;;;5.40;;
35380;SDS011;21486;51.916;8.378;2023-08-20T06:42:31;10.52;;;5.78;;
35380;SDS011;21486;51.916;8.378;2023-08-20T06:44:57;13.68;;;6.05;;
35380;SDS011;21486;51.916;8.378;2023-08-20T06:47:22;11.03;;;5.30;;
35380;SDS011;21486;51.916;8.378;2023-08-20T06:49:49;10.27;;;5.50;;
35380;SDS011;21486;51.916;8.378;2023-08-20T06:52:15;10.93;;;5.75;;
35380;SDS011;21486;51.916;8.378;2023-08-20T06:54:40;10.40;;;6.00;;
35380;SDS011;21486;51.916;8.378;2023-08-20T06:57:06;10.37;;;6.33;;
35380;SDS011;21486;51.916;8.378;2023-08-20T06:59:31;14.57;;;7.30;;
35380;SDS011;21486;51.916;8.378;2023-08-20T07:01:57;13.23;;;6.97;;
35380;SDS011;21486;51.916;8.378;2023-08-20T07:04:22;11.48;;;6.32;;
35380;SDS011;21486;51.916;8.378;2023-08-20T07:06:48;12.17;;;6.67;;
35380;SDS011;21486;51.916;8.378;2023-08-20T07:09:15;12.57;;;7.15;;
35380;SDS011;21486;51.916;8.378;2023-08-20T07:11:41;13.77;;;7.03;;
35380;SDS011;21486;51.916;8.378;2023-08-20T07:14:06;13.53;;;6.83;;
35380;SDS011;21486;51.916;8.378;2023-08-20T07:16:32;18.85;;;7.93;;
35380;SDS011;21486;51.916;8.378;2023-08-20T07:18:57;15.63;;;8.47;;
35380;SDS011;21486;51.916;8.378;2023-08-20T07:21:23;15.57;;;8.70;;
35380;SDS011;21486;51.916;8.378;2023-08-20T07:23:48;18.90;;;9.20;;
35380;SDS011;21486;51.916;8.378;2023-08-20T07:26:14;16.47;;;9.93;;
35380;SDS011;21486;51.916;8.378;2023-08-20T07:28:40;17.63;;;9.53;;
35380;SDS011;21486;51.916;8.378;2023-08-20T07:31:21;16.10;;;9.90;;
35380;SDS011;21486;51.916;8.378;2023-08-20T07:33:48;18.13;;;10.63;;
35380;SDS011;21486;51.916;8.378;2023-08-20T07:36:15;17.27;;;10.80;;
35380;SDS011;21486;51.916;8.378;2023-08-20T07:38:41;17.73;;;10.95;;
35380;SDS011;21486;51.916;8.378;2023-08-20T07:41:10;18.67;;;11.80;;
35380;SDS011;21486;51.916;8.378;2023-08-20T07:43:39;17.50;;;10.82;;
35380;SDS011;21486;51.916;8.378;2023-08-20T07:46:06;15.73;;;10.38;;
35380;SDS011;21486;51.916;8.378;2023-08-20T07:48:32;16.63;;;10.20;;
35380;SDS011;21486;51.916;8.378;2023-08-20T07:50:58;20.33;;;12.75;;
35380;SDS011;21486;51.916;8.378;2023-08-20T07:53:24;18.35;;;11.55;;
35380;SDS011;21486;51.916;8.378;2023-08-20T07:55:50;18.10;;;12.13;;
35380;SDS011;21486;51.916;8.378;2023-08-20T07:58:15;19.33;;;12.70;;
35380;SDS011;21486;51.916;8.378;2023-08-20T08:00:41;18.77;;;11.85;;
35380;SDS011;21486;51.916;8.378;2023-08-20T08:03:07;23.13;;;13.48;;
35380;SDS011;21486;51.916;8.378;2023-08-20T08:05:34;20.90;;;12.00;;
35380;SDS011;21486;51.916;8.378;2023-08-20T08:08:03;22.58;;;13.90;;
35380;SDS011;21486;51.916;8.378;2023-08-20T08:10:29;21.30;;;13.13;;
35380;SDS011;21486;51.916;8.378;2023-08-20T08:12:54;21.52;;;13.80;;
35380;SDS011;21486;51.916;8.378;2023-08-20T08:15:20;24.90;;;14.77;;
35380;SDS011;21486;51.916;8.378;2023-08-20T08:17:45;23.02;;;14.95;;
35380;SDS011;21486;51.916;8.378;2023-08-20T08:20:11;25.13;;;15.60;;
35380;SDS011;21486;51.916;8.378;2023-08-20T08:22:36;22.13;;;13.73;;
35380;SDS011;21486;51.916;8.378;2023-08-20T08:25:02;24.27;;;15.65;;
35380;SDS011;21486;51.916;8.378;2023-08-20T08:27:28;20.23;;;14.33;;
